sensor_id;sensor_type;location;lat;lon;timestamp;temperature;humidity
2054;DHT22;1032;52.542;13.440;2022-12-18T00:01:59;-1.30;99.90
2054;DHT22;1032;52.542;13.440;2022-12-18T00:04:27;-1.50;99.90
2054;DHT22;1032;52.542;13.440;2022-12-18T00:06:54;-1.30;99.90
2054;DHT22;1032;52.542;13.440;2022-12-18T00:09:20;-1.40;99.90
2054;DHT22;1032;52.542;13.440;2022-12-18T00:11:47;-2.10;99.90
2054;DHT22;1032;52.542;13.440;2022-12-18T00:14:15;-1.70;99.90
2054;DHT22;1032;52.542;13.440;2022-12-18T00:16:43;-1.30;99.90
2054;DHT22;1032;52.542;13.440;2022-12-18T00:19:13;-1.50;99.90
2054;DHT22;1032;52.542;13.440;2022-12-18T00:21:41;-1.40;99.90
2054;DHT22;1032;52.542;13.440;2022-12-18T00:24:08;-1.60;99.90
2054;DHT22;1032;52.542;13.440;2022-12-18T00:26:37;-1.40;99.90
2054;DHT22;1032;52.542;13.440;2022-12-18T00:29:07;-1.70;99.90
2054;DHT22;1032;52.542;13.440;2022-12-18T00:31:34;-1.50;99.90
2054;DHT22;1032;52.542;13.440;2022-12-18T00:34:01;-1.60;99.90
2054;DHT22;1032;52.542;13.440;2022-12-18T00:36:31;-1.50;99.90
2054;DHT22;1032;52.542;13.440;2022-12-18T00:38:59;-1.80;99.90
2054;DHT22;1032;52.542;13.440;2022-12-18T00:41:27;-1.90;99.90
2054;DHT22;1032;52.542;13.440;2022-12-18T00:44:13;-1.70;99.90
2054;DHT22;1032;52.542;13.440;2022-12-18T00:46:40;-1.60;99.90
2054;DHT22;1032;52.542;13.440;2022-12-18T00:49:07;-1.70;99.90
2054;DHT22;1032;52.542;13.440;2022-12-18T00:51:35;-1.80;99.90
2054;DHT22;1032;52.542;13.440;2022-12-18T00:54:03;-2.00;99.90
2054;DHT22;1032;52.542;13.440;2022-12-18T00:56:30;-1.60;99.90
2054;DHT22;1032;52.542;13.440;2022-12-18T00:58:56;-1.80;99.90
2054;DHT22;1032;52.542;13.440;2022-12-18T01:01:23;-1.80;99.90
2054;DHT22;1032;52.542;13.440;2022-12-18T01:03:50;-2.30;99.90
2054;DHT22;1032;52.542;13.440;2022-12-18T01:06:16;-1.80;99.90
2054;DHT22;1032;52.542;13.440;2022-12-18T01:08:44;-1.60;99.90
2054;DHT22;1032;52.542;13.440;2022-12-18T01:11:13;-1.90;99.90
2054;DHT22;1032;52.542;13.440;2022-12-18T01:13:40;-1.70;99.90
2054;DHT22;1032;52.542;13.440;2022-12-18T01:16:08;-1.90;99.90
2054;DHT22;1032;52.542;13.440;2022-12-18T01:18:35;-1.50;99.90
2054;DHT22;1032;52.542;13.440;2022-12-18T01:21:06;-2.00;99.90
2054;DHT22;1032;52.542;13.440;2022-12-18T01:23:32;-1.80;99.90
2054;DHT22;1032;52.542;13.440;2022-12-18T01:26:05;-1.50;99.90
2054;DHT22;1032;52.542;13.440;2022-12-18T01:28:34;-1.90;99.90
2054;DHT22;1032;52.542;13.440;2022-12-18T01:31:16;-1.70;99.90
2054;DHT22;1032;52.542;13.440;2022-12-18T01:33:43;-2.30;99.90
2054;DHT22;1032;52.542;13.440;2022-12-18T01:36:18;-1.90;99.90
2054;DHT22;1032;52.542;13.440;2022-12-18T01:38:46;-2.00;99.90
2054;DHT22;1032;52.542;13.440;2022-12-18T01:41:15;-1.80;99.90
2054;DHT22;1032;52.542;13.440;2022-12-18T01:43:48;-2.00;99.90
2054;DHT22;1032;52.542;13.440;2022-12-18T01:46:16;-2.00;99.90
2054;DHT22;1032;52.542;13.440;2022-12-18T01:48:44;-2.10;99.90
2054;DHT22;1032;52.542;13.440;2022-12-18T01:51:11;-1.70;99.90
2054;DHT22;1032;52.542;13.440;2022-12-18T01:53:42;-2.60;99.90
2054;DHT22;1032;52.542;13.440;2022-12-18T01:56:15;-2.00;99.90
2054;DHT22;1032;52.542;13.440;2022-12-18T01:58:48;-2.20;99.90
2054;DHT22;1032;52.542;13.440;2022-12-18T02:01:17;-2.00;99.90
2054;DHT22;1032;52.542;13.440;2022-12-18T02:03:44;-2.20;99.90
2054;DHT22;1032;52.542;13.440;2022-12-18T02:06:15;-2.10;99.90
2054;DHT22;1032;52.542;13.440;2022-12-18T02:08:50;-2.10;99.90
2054;DHT22;1032;52.542;13.440;2022-12-18T02:11:35;-2.20;99.90
2054;DHT22;1032;52.542;13.440;2022-12-18T02:14:11;-2.10;99.90
2054;DHT22;1032;52.542;13.440;2022-12-18T02:16:45;-2.10;99.90
2054;DHT22;1032;52.542;13.440;2022-12-18T02:19:27;-2.20;99.90
2054;DHT22;1032;52.542;13.440;2022-12-18T02:22:12;-2.10;99.90
2054;DHT22;1032;52.542;13.440;2022-12-18T02:24:54;-1.80;99.90
2054;DHT22;1032;52.542;13.440;2022-12-18T02:27:26;-2.10;99.90
2054;DHT22;1032;52.542;13.440;2022-12-18T02:29:55;-2.10;99.90
2054;DHT22;1032;52.542;13.440;2022-12-18T02:32:26;-2.30;99.90
2054;DHT22;1032;52.542;13.440;2022-12-18T02:34:56;-2.10;99.90
2054;DHT22;1032;52.542;13.440;2022-12-18T02:37:28;-2.00;99.90
2054;DHT22;1032;52.542;13.440;2022-12-18T02:39:59;-2.60;99.90
2054;DHT22;1032;52.542;13.440;2022-12-18T02:42:31;-2.00;99.90
2054;DHT22;1032;52.542;13.440;2022-12-18T02:44:59;-2.00;99.90
2054;DHT22;1032;52.542;13.440;2022-12-18T02:47:30;-2.20;99.90
2054;DHT22;1032;52.542;13.440;2022-12-18T02:50:03;-2.30;99.90
2054;DHT22;1032;52.542;13.440;2022-12-18T02:52:40;-2.20;99.90
2054;DHT22;1032;52.542;13.440;2022-12-18T02:55:22;-2.20;99.90
2054;DHT22;1032;52.542;13.440;2022-12-18T02:58:04;-2.00;99.90
2054;DHT22;1032;52.542;13.440;2022-12-18T03:00:40;-2.00;99.90
2054;DHT22;1032;52.542;13.440;2022-12-18T03:03:11;-2.30;99.90
2054;DHT22;1032;52.542;13.440;2022-12-18T03:05:41;-2.10;99.90
2054;DHT22;1032;52.542;13.440;2022-12-18T03:08:13;-2.00;99.90
2054;DHT22;1032;52.542;13.440;2022-12-18T03:10:45;-2.30;99.90
2054;DHT22;1032;52.542;13.440;2022-12-18T03:13:22;-2.20;99.90
2054;DHT22;1032;52.542;13.440;2022-12-18T03:15:53;-2.10;99.90
2054;DHT22;1032;52.542;13.440;2022-12-18T03:18:25;-2.40;99.90
2054;DHT22;1032;52.542;13.440;2022-12-18T03:20:53;-2.50;99.90
2054;DHT22;1032;52.542;13.440;2022-12-18T03:23:25;-2.40;99.90
2054;DHT22;1032;52.542;13.440;2022-12-18T03:25:58;-1.90;99.90
2054;DHT22;1032;52.542;13.440;2022-12-18T03:28:28;-2.10;99.90
2054;DHT22;1032;52.542;13.440;2022-12-18T03:31:00;-1.90;99.90
2054;DHT22;1032;52.542;13.440;2022-12-18T03:33:32;-1.70;99.90
2054;DHT22;1032;52.542;13.440;2022-12-18T03:36:01;-2.40;99.90
2054;DHT22;1032;52.542;13.440;2022-12-18T03:38:27;-2.40;99.90
2054;DHT22;1032;52.542;13.440;2022-12-18T03:41:00;-3.00;99.90
2054;DHT22;1032;52.542;13.440;2022-12-18T03:43:37;-2.50;99.90
2054;DHT22;1032;52.542;13.440;2022-12-18T03:46:11;-2.50;99.90
2054;DHT22;1032;52.542;13.440;2022-12-18T03:48:44;-2.50;99.90
2054;DHT22;1032;52.542;13.440;2022-12-18T03:51:23;-2.60;99.90
2054;DHT22;1032;52.542;13.440;2022-12-18T03:53:55;-2.40;99.90
2054;DHT22;1032;52.542;13.440;2022-12-18T03:56:31;-2.40;99.90
2054;DHT22;1032;52.542;13.440;2022-12-18T03:59:02;-2.50;99.90
2054;DHT22;1032;52.542;13.440;2022-12-18T04:01:32;-2.30;99.90
2054;DHT22;1032;52.542;13.440;2022-12-18T04:04:01;-2.60;99.90
2054;DHT22;1032;52.542;13.440;2022-12-18T04:06:36;-2.50;99.90
2054;DHT22;1032;52.542;13.440;2022-12-18T04:09:04;-2.70;99.90
2054;DHT22;1032;52.542;13.440;2022-12-18T04:11:34;-2.70;99.90
2054;DHT22;1032;52.542;13.440;2022-12-18T04:14:04;-2.60;99.90
2054;DHT22;1032;52.542;13.440;2022-12-18T04:16:30;-2.60;99.90
2054;DHT22;1032;52.542;13.440;2022-12-18T04:19:01;-2.60;99.90
2054;DHT22;1032;52.542;13.440;2022-12-18T04:21:31;-3.20;99.90
2054;DHT22;1032;52.542;13.440;2022-12-18T04:23:58;-2.50;99.90
2054;DHT22;1032;52.542;13.440;2022-12-18T04:26:24;-3.00;99.90
2054;DHT22;1032;52.542;13.440;2022-12-18T04:29:11;-2.50;99.90
2054;DHT22;1032;52.542;13.440;2022-12-18T04:31:38;-2.60;99.90
2054;DHT22;1032;52.542;13.440;2022-12-18T04:34:06;-2.70;99.90
2054;DHT22;1032;52.542;13.440;2022-12-18T04:36:38;-2.40;99.90
2054;DHT22;1032;52.542;13.440;2022-12-18T04:39:06;-2.60;99.90
2054;DHT22;1032;52.542;13.440;2022-12-18T04:41:33;-3.20;99.90
2054;DHT22;1032;52.542;13.440;2022-12-18T04:44:00;-2.40;99.90
2054;DHT22;1032;52.542;13.440;2022-12-18T04:46:28;-2.50;99.90
2054;DHT22;1032;52.542;13.440;2022-12-18T04:48:54;-2.70;99.90
2054;DHT22;1032;52.542;13.440;2022-12-18T04:51:21;-2.50;99.90
2054;DHT22;1032;52.542;13.440;2022-12-18T04:53:48;-2.50;99.90
2054;DHT22;1032;52.542;13.440;2022-12-18T04:56:15;-2.70;99.90
2054;DHT22;1032;52.542;13.440;2022-12-18T04:58:43;-2.60;99.90
2054;DHT22;1032;52.542;13.440;2022-12-18T05:01:11;-2.60;99.90
2054;DHT22;1032;52.542;13.440;2022-12-18T05:03:40;-2.50;99.90
2054;DHT22;1032;52.542;13.440;2022-12-18T05:06:07;-2.50;99.90
2054;DHT22;1032;52.542;13.440;2022-12-18T05:08:34;-2.50;99.90
2054;DHT22;1032;52.542;13.440;2022-12-18T05:11:02;-2.20;99.90
2054;DHT22;1032;52.542;13.440;2022-12-18T05:13:30;-2.70;99.90
2054;DHT22;1032;52.542;13.440;2022-12-18T05:15:57;-2.70;99.90
2054;DHT22;1032;52.542;13.440;2022-12-18T05:18:24;-3.40;99.90
2054;DHT22;1032;52.542;13.440;2022-12-18T05:20:53;-3.20;99.90
2054;DHT22;1032;52.542;13.440;2022-12-18T05:23:21;-2.60;99.90
2054;DHT22;1032;52.542;13.440;2022-12-18T05:25:51;-3.10;99.90
2054;DHT22;1032;52.542;13.440;2022-12-18T05:28:17;-2.70;99.90
2054;DHT22;1032;52.542;13.440;2022-12-18T05:30:47;-2.70;99.90
2054;DHT22;1032;52.542;13.440;2022-12-18T05:33:14;-2.60;99.90
2054;DHT22;1032;52.542;13.440;2022-12-18T05:35:41;-3.40;99.90
2054;DHT22;1032;52.542;13.440;2022-12-18T05:38:08;-3.20;99.90
2054;DHT22;1032;52.542;13.440;2022-12-18T05:40:35;-2.60;99.90
2054;DHT22;1032;52.542;13.440;2022-12-18T05:43:02;-2.60;99.90
2054;DHT22;1032;52.542;13.440;2022-12-18T05:45:32;-2.70;99.90
2054;DHT22;1032;52.542;13.440;2022-12-18T05:47:58;-2.90;99.90
2054;DHT22;1032;52.542;13.440;2022-12-18T05:50:25;-2.50;99.90
2054;DHT22;1032;52.542;13.440;2022-12-18T05:52:51;-2.50;99.90
2054;DHT22;1032;52.542;13.440;2022-12-18T05:55:20;-3.40;99.90
2054;DHT22;1032;52.542;13.440;2022-12-18T05:57:46;-2.80;99.90
2054;DHT22;1032;52.542;13.440;2022-12-18T06:00:14;-2.60;99.90
2054;DHT22;1032;52.542;13.440;2022-12-18T06:02:41;-2.60;99.90
2054;DHT22;1032;52.542;13.440;2022-12-18T06:05:07;-3.30;99.90
2054;DHT22;1032;52.542;13.440;2022-12-18T06:07:34;-2.70;99.90
2054;DHT22;1032;52.542;13.440;2022-12-18T06:10:01;-2.70;99.90
2054;DHT22;1032;52.542;13.440;2022-12-18T06:12:28;-2.00;99.90
2054;DHT22;1032;52.542;13.440;2022-12-18T06:14:55;-2.60;99.90
2054;DHT22;1032;52.542;13.440;2022-12-18T06:17:22;-2.60;99.90
2054;DHT22;1032;52.542;13.440;2022-12-18T06:19:48;-3.30;99.90
2054;DHT22;1032;52.542;13.440;2022-12-18T06:22:15;-2.50;99.90
2054;DHT22;1032;52.542;13.440;2022-12-18T06:24:42;-2.70;99.90
2054;DHT22;1032;52.542;13.440;2022-12-18T06:27:08;-2.70;99.90
2054;DHT22;1032;52.542;13.440;2022-12-18T06:29:36;-2.60;99.90
2054;DHT22;1032;52.542;13.440;2022-12-18T06:32:03;-2.60;99.90
2054;DHT22;1032;52.542;13.440;2022-12-18T06:34:30;-2.70;99.90
2054;DHT22;1032;52.542;13.440;2022-12-18T06:36:56;-2.90;99.90
2054;DHT22;1032;52.542;13.440;2022-12-18T06:39:23;-2.80;99.90
2054;DHT22;1032;52.542;13.440;2022-12-18T06:41:50;-2.80;99.90
2054;DHT22;1032;52.542;13.440;2022-12-18T06:44:16;-2.50;99.90
2054;DHT22;1032;52.542;13.440;2022-12-18T06:46:44;-2.70;99.90
2054;DHT22;1032;52.542;13.440;2022-12-18T06:49:11;-2.10;99.90
2054;DHT22;1032;52.542;13.440;2022-12-18T06:51:37;-2.50;99.90
2054;DHT22;1032;52.542;13.440;2022-12-18T06:54:04;-3.10;99.90
2054;DHT22;1032;52.542;13.440;2022-12-18T06:56:31;-2.80;99.90
2054;DHT22;1032;52.542;13.440;2022-12-18T06:58:58;-2.60;99.90
2054;DHT22;1032;52.542;13.440;2022-12-18T07:01:24;-2.10;99.90
2054;DHT22;1032;52.542;13.440;2022-12-18T07:03:53;-3.20;99.90
2054;DHT22;1032;52.542;13.440;2022-12-18T07:06:22;-2.70;99.90
2054;DHT22;1032;52.542;13.440;2022-12-18T07:08:50;-2.50;99.90
2054;DHT22;1032;52.542;13.440;2022-12-18T07:11:18;-2.80;99.90
2054;DHT22;1032;52.542;13.440;2022-12-18T07:13:46;-2.70;99.90
2054;DHT22;1032;52.542;13.440;2022-12-18T07:16:15;-2.40;99.90
2054;DHT22;1032;52.542;13.440;2022-12-18T07:18:41;-2.40;99.90
2054;DHT22;1032;52.542;13.440;2022-12-18T07:21:15;-2.60;99.90
2054;DHT22;1032;52.542;13.440;2022-12-18T07:23:42;-2.70;99.90
2054;DHT22;1032;52.542;13.440;2022-12-18T07:26:11;-2.00;99.90
2054;DHT22;1032;52.542;13.440;2022-12-18T07:28:40;-2.60;99.90
2054;DHT22;1032;52.542;13.440;2022-12-18T07:31:08;-2.80;99.90
2054;DHT22;1032;52.542;13.440;2022-12-18T07:33:35;-2.60;99.90
2054;DHT22;1032;52.542;13.440;2022-12-18T07:36:03;-2.20;99.90
2054;DHT22;1032;52.542;13.440;2022-12-18T07:38:33;-2.60;99.90
2054;DHT22;1032;52.542;13.440;2022-12-18T07:41:00;-2.00;99.90
2054;DHT22;1032;52.542;13.440;2022-12-18T07:43:27;-2.70;99.90
2054;DHT22;1032;52.542;13.440;2022-12-18T07:45:53;-2.80;99.90
2054;DHT22;1032;52.542;13.440;2022-12-18T07:48:20;-2.60;99.90
2054;DHT22;1032;52.542;13.440;2022-12-18T07:50:47;-2.80;99.90
2054;DHT22;1032;52.542;13.440;2022-12-18T07:53:14;-2.70;99.90
2054;DHT22;1032;52.542;13.440;2022-12-18T07:55:42;-2.60;99.90
2054;DHT22;1032;52.542;13.440;2022-12-18T07:58:08;-2.70;99.90
2054;DHT22;1032;52.542;13.440;2022-12-18T08:00:35;-2.70;99.90
2054;DHT22;1032;52.542;13.440;2022-12-18T08:03:01;-2.60;99.90
2054;DHT22;1032;52.542;13.440;2022-12-18T08:05:28;-2.80;99.90
2054;DHT22;1032;52.542;13.440;2022-12-18T08:07:55;-2.50;99.90
2054;DHT22;1032;52.542;13.440;2022-12-18T08:10:21;-2.60;99.90
2054;DHT22;1032;52.542;13.440;2022-12-18T08:12:50;-2.50;99.90
2054;DHT22;1032;52.542;13.440;2022-12-18T08:15:17;-2.50;99.90
2054;DHT22;1032;52.542;13.440;2022-12-18T08:17:44;-2.40;99.90
2054;DHT22;1032;52.542;13.440;2022-12-18T08:20:11;-2.40;99.90
2054;DHT22;1032;52.542;13.440;2022-12-18T08:22:39;-2.30;99.90
2054;DHT22;1032;52.542;13.440;2022-12-18T08:25:06;-2.50;99.90
2054;DHT22;1032;52.542;13.440;2022-12-18T08:27:33;-2.30;99.90
2054;DHT22;1032;52.542;13.440;2022-12-18T08:30:01;-2.30;99.90
2054;DHT22;1032;52.542;13.440;2022-12-18T08:32:29;-2.20;99.90
2054;DHT22;1032;52.542;13.440;2022-12-18T08:34:55;-2.40;99.90
2054;DHT22;1032;52.542;13.440;2022-12-18T08:37:22;-2.00;99.90
2054;DHT22;1032;52.542;13.440;2022-12-18T08:39:49;-2.50;99.90
2054;DHT22;1032;52.542;13.440;2022-12-18T08:42:16;-2.50;99.90
2054;DHT22;1032;52.542;13.440;2022-12-18T08:45:02;-2.60;99.90
2054;DHT22;1032;52.542;13.440;2022-12-18T08:47:29;-2.40;99.90
2054;DHT22;1032;52.542;13.440;2022-12-18T08:49:55;-2.40;99.90
2054;DHT22;1032;52.542;13.440;2022-12-18T08:52:22;-2.30;99.90
2054;DHT22;1032;52.542;13.440;2022-12-18T08:54:48;-2.50;99.90
2054;DHT22;1032;52.542;13.440;2022-12-18T08:57:15;-2.40;99.90
2054;DHT22;1032;52.542;13.440;2022-12-18T08:59:42;-2.30;99.90
2054;DHT22;1032;52.542;13.440;2022-12-18T09:02:11;-2.20;99.90
2054;DHT22;1032;52.542;13.440;2022-12-18T09:04:37;-2.30;99.90
2054;DHT22;1032;52.542;13.440;2022-12-18T09:07:05;-2.10;99.90
2054;DHT22;1032;52.542;13.440;2022-12-18T09:09:31;-2.30;99.90
2054;DHT22;1032;52.542;13.440;2022-12-18T09:11:58;-2.20;99.90
2054;DHT22;1032;52.542;13.440;2022-12-18T09:14:25;-2.40;99.90
2054;DHT22;1032;52.542;13.440;2022-12-18T09:16:51;-2.80;99.90
2054;DHT22;1032;52.542;13.440;2022-12-18T09:19:19;-2.40;99.90
2054;DHT22;1032;52.542;13.440;2022-12-18T09:21:46;-2.40;99.90
2054;DHT22;1032;52.542;13.440;2022-12-18T09:24:13;-2.30;99.90
2054;DHT22;1032;52.542;13.440;2022-12-18T09:26:40;-2.20;99.90
2054;DHT22;1032;52.542;13.440;2022-12-18T09:29:06;-2.00;99.90
2054;DHT22;1032;52.542;13.440;2022-12-18T09:31:34;-2.10;99.90
2054;DHT22;1032;52.542;13.440;2022-12-18T09:34:00;-2.20;99.90
2054;DHT22;1032;52.542;13.440;2022-12-18T09:36:28;-2.20;99.90
2054;DHT22;1032;52.542;13.440;2022-12-18T09:38:55;-2.10;99.90
2054;DHT22;1032;52.542;13.440;2022-12-18T09:41:35;-1.90;99.90
2054;DHT22;1032;52.542;13.440;2022-12-18T09:44:21;-2.00;99.90
2054;DHT22;1032;52.542;13.440;2022-12-18T09:46:52;-2.10;99.90
2054;DHT22;1032;52.542;13.440;2022-12-18T09:49:23;-2.40;99.90
2054;DHT22;1032;52.542;13.440;2022-12-18T09:51:55;-1.60;99.90
2054;DHT22;1032;52.542;13.440;2022-12-18T09:54:31;-2.00;99.90
2054;DHT22;1032;52.542;13.440;2022-12-18T09:56:59;-1.60;99.90
2054;DHT22;1032;52.542;13.440;2022-12-18T09:59:29;-1.60;99.90
2054;DHT22;1032;52.542;13.440;2022-12-18T10:01:57;-2.40;99.90
2054;DHT22;1032;52.542;13.440;2022-12-18T10:04:24;-1.80;99.90
2054;DHT22;1032;52.542;13.440;2022-12-18T10:06:58;-1.80;99.90
2054;DHT22;1032;52.542;13.440;2022-12-18T10:09:36;-1.80;99.90
2054;DHT22;1032;52.542;13.440;2022-12-18T10:12:08;-1.80;99.90
2054;DHT22;1032;52.542;13.440;2022-12-18T10:14:43;-1.90;99.90
2054;DHT22;1032;52.542;13.440;2022-12-18T10:17:18;-1.90;99.90
2054;DHT22;1032;52.542;13.440;2022-12-18T10:19:52;-1.80;99.90
2054;DHT22;1032;52.542;13.440;2022-12-18T10:22:35;-1.70;99.90
2054;DHT22;1032;52.542;13.440;2022-12-18T10:25:09;-1.30;99.90
2054;DHT22;1032;52.542;13.440;2022-12-18T10:27:41;-1.30;99.90
2054;DHT22;1032;52.542;13.440;2022-12-18T10:30:13;-1.30;99.90
2054;DHT22;1032;52.542;13.440;2022-12-18T10:32:40;-1.30;99.90
2054;DHT22;1032;52.542;13.440;2022-12-18T10:35:15;-1.30;99.90
2054;DHT22;1032;52.542;13.440;2022-12-18T10:40:49;-1.10;99.90
2054;DHT22;1032;52.542;13.440;2022-12-18T10:43:20;-1.90;99.90
2054;DHT22;1032;52.542;13.440;2022-12-18T10:45:58;-1.20;99.90
2054;DHT22;1032;52.542;13.440;2022-12-18T10:48:26;-1.60;99.90
2054;DHT22;1032;52.542;13.440;2022-12-18T10:50:53;-0.90;99.90
2054;DHT22;1032;52.542;13.440;2022-12-18T10:53:22;-1.60;99.90
2054;DHT22;1032;52.542;13.440;2022-12-18T10:55:52;-0.90;99.90
2054;DHT22;1032;52.542;13.440;2022-12-18T10:58:29;-0.90;99.90
2054;DHT22;1032;52.542;13.440;2022-12-18T11:01:09;-1.50;99.90
2054;DHT22;1032;52.542;13.440;2022-12-18T11:03:38;-0.80;99.90
2054;DHT22;1032;52.542;13.440;2022-12-18T11:06:08;-1.20;99.90
2054;DHT22;1032;52.542;13.440;2022-12-18T11:08:35;-0.90;99.90
2054;DHT22;1032;52.542;13.440;2022-12-18T11:11:06;-1.50;99.90
2054;DHT22;1032;52.542;13.440;2022-12-18T11:13:34;-0.90;99.90
2054;DHT22;1032;52.542;13.440;2022-12-18T11:16:00;-0.70;99.90
2054;DHT22;1032;52.542;13.440;2022-12-18T11:18:28;-0.90;99.90
2054;DHT22;1032;52.542;13.440;2022-12-18T11:20:58;-1.00;99.90
2054;DHT22;1032;52.542;13.440;2022-12-18T11:23:26;-0.70;99.90
2054;DHT22;1032;52.542;13.440;2022-12-18T11:25:56;-0.70;99.90
2054;DHT22;1032;52.542;13.440;2022-12-18T11:28:35;-1.30;99.90
2054;DHT22;1032;52.542;13.440;2022-12-18T11:31:16;-0.80;99.90
2054;DHT22;1032;52.542;13.440;2022-12-18T11:33:46;-0.70;99.90
2054;DHT22;1032;52.542;13.440;2022-12-18T11:36:16;-0.70;99.90
2054;DHT22;1032;52.542;13.440;2022-12-18T11:38:44;-0.80;99.90
2054;DHT22;1032;52.542;13.440;2022-12-18T11:41:16;-0.70;99.90
2054;DHT22;1032;52.542;13.440;2022-12-18T11:43:51;-0.80;99.90
2054;DHT22;1032;52.542;13.440;2022-12-18T11:46:24;-1.40;99.90
2054;DHT22;1032;52.542;13.440;2022-12-18T11:48:58;-0.70;99.90
2054;DHT22;1032;52.542;13.440;2022-12-18T11:51:32;-0.70;99.90
2054;DHT22;1032;52.542;13.440;2022-12-18T11:54:00;-1.40;99.90
2054;DHT22;1032;52.542;13.440;2022-12-18T11:56:32;-0.80;99.90
2054;DHT22;1032;52.542;13.440;2022-12-18T11:59:09;-0.90;99.90
2054;DHT22;1032;52.542;13.440;2022-12-18T12:01:46;-0.70;99.90
2054;DHT22;1032;52.542;13.440;2022-12-18T12:04:27;-0.60;99.90
2054;DHT22;1032;52.542;13.440;2022-12-18T12:07:04;-0.60;99.90
2054;DHT22;1032;52.542;13.440;2022-12-18T12:09:46;-0.80;99.90
2054;DHT22;1032;52.542;13.440;2022-12-18T12:12:27;-1.10;99.90
2054;DHT22;1032;52.542;13.440;2022-12-18T12:15:02;-0.90;99.90
2054;DHT22;1032;52.542;13.440;2022-12-18T12:17:36;-0.80;99.90
2054;DHT22;1032;52.542;13.440;2022-12-18T12:20:10;-0.80;99.90
2054;DHT22;1032;52.542;13.440;2022-12-18T12:22:45;-0.90;99.90
2054;DHT22;1032;52.542;13.440;2022-12-18T12:25:25;-0.70;99.90
2054;DHT22;1032;52.542;13.440;2022-12-18T12:28:01;-0.20;99.90
2054;DHT22;1032;52.542;13.440;2022-12-18T12:30:38;-0.20;99.90
2054;DHT22;1032;52.542;13.440;2022-12-18T12:33:17;-1.20;99.90
2054;DHT22;1032;52.542;13.440;2022-12-18T12:35:51;-0.60;99.90
2054;DHT22;1032;52.542;13.440;2022-12-18T12:38:23;-0.60;99.90
2054;DHT22;1032;52.542;13.440;2022-12-18T12:40:54;-0.60;99.90
2054;DHT22;1032;52.542;13.440;2022-12-18T12:43:31;-0.50;99.90
2054;DHT22;1032;52.542;13.440;2022-12-18T12:46:04;-0.40;99.90
2054;DHT22;1032;52.542;13.440;2022-12-18T12:48:43;-0.60;99.90
2054;DHT22;1032;52.542;13.440;2022-12-18T12:51:15;-0.50;99.90
2054;DHT22;1032;52.542;13.440;2022-12-18T12:53:43;-0.60;99.90
2054;DHT22;1032;52.542;13.440;2022-12-18T12:56:12;-0.60;99.90
2054;DHT22;1032;52.542;13.440;2022-12-18T12:58:46;-0.50;99.90
2054;DHT22;1032;52.542;13.440;2022-12-18T13:01:25;-0.80;99.90
2054;DHT22;1032;52.542;13.440;2022-12-18T13:04:01;-0.60;99.90
2054;DHT22;1032;52.542;13.440;2022-12-18T13:06:39;-0.70;99.90
2054;DHT22;1032;52.542;13.440;2022-12-18T13:09:06;-0.60;99.90
2054;DHT22;1032;52.542;13.440;2022-12-18T13:11:37;-0.60;99.90
2054;DHT22;1032;52.542;13.440;2022-12-18T13:14:24;-0.70;99.90
2054;DHT22;1032;52.542;13.440;2022-12-18T13:16:52;-0.70;99.90
2054;DHT22;1032;52.542;13.440;2022-12-18T13:19:38;-1.20;99.90
2054;DHT22;1032;52.542;13.440;2022-12-18T13:22:21;-0.70;99.90
2054;DHT22;1032;52.542;13.440;2022-12-18T13:24:48;-0.70;99.90
2054;DHT22;1032;52.542;13.440;2022-12-18T13:27:45;-0.70;99.90
2054;DHT22;1032;52.542;13.440;2022-12-18T13:30:40;-0.70;99.90
2054;DHT22;1032;52.542;13.440;2022-12-18T13:36:28;-0.80;99.90
2054;DHT22;1032;52.542;13.440;2022-12-18T13:39:22;-1.00;99.90
2054;DHT22;1032;52.542;13.440;2022-12-18T13:41:50;-0.60;99.90
2054;DHT22;1032;52.542;13.440;2022-12-18T13:44:25;-0.50;99.90
2054;DHT22;1032;52.542;13.440;2022-12-18T13:46:54;-0.60;99.90
2054;DHT22;1032;52.542;13.440;2022-12-18T13:49:23;-0.60;99.90
2054;DHT22;1032;52.542;13.440;2022-12-18T13:51:54;-0.60;99.90
2054;DHT22;1032;52.542;13.440;2022-12-18T13:54:25;-0.50;99.90
2054;DHT22;1032;52.542;13.440;2022-12-18T13:56:54;-0.80;99.90
2054;DHT22;1032;52.542;13.440;2022-12-18T13:59:23;-1.00;99.90
2054;DHT22;1032;52.542;13.440;2022-12-18T14:01:53;-0.60;99.90
2054;DHT22;1032;52.542;13.440;2022-12-18T14:04:23;-0.70;99.90
2054;DHT22;1032;52.542;13.440;2022-12-18T14:06:54;-1.20;99.90
2054;DHT22;1032;52.542;13.440;2022-12-18T14:09:25;-0.30;99.90
2054;DHT22;1032;52.542;13.440;2022-12-18T14:11:52;-0.90;99.90
2054;DHT22;1032;52.542;13.440;2022-12-18T14:14:42;-0.70;99.90
2054;DHT22;1032;52.542;13.440;2022-12-18T14:17:10;-1.10;99.90
2054;DHT22;1032;52.542;13.440;2022-12-18T14:19:41;-0.70;99.90
2054;DHT22;1032;52.542;13.440;2022-12-18T14:22:15;-0.80;99.90
2054;DHT22;1032;52.542;13.440;2022-12-18T14:24:42;-0.60;99.90
2054;DHT22;1032;52.542;13.440;2022-12-18T14:27:20;-0.60;99.90
2054;DHT22;1032;52.542;13.440;2022-12-18T14:29:48;-0.60;99.90
2054;DHT22;1032;52.542;13.440;2022-12-18T14:32:16;-0.60;99.90
2054;DHT22;1032;52.542;13.440;2022-12-18T14:34:44;-0.80;99.90
2054;DHT22;1032;52.542;13.440;2022-12-18T14:37:12;-0.70;99.90
2054;DHT22;1032;52.542;13.440;2022-12-18T14:39:39;-1.10;99.90
2054;DHT22;1032;52.542;13.440;2022-12-18T14:42:10;-0.70;99.90
2054;DHT22;1032;52.542;13.440;2022-12-18T14:44:37;-0.70;99.90
2054;DHT22;1032;52.542;13.440;2022-12-18T14:47:03;-0.80;99.90
2054;DHT22;1032;52.542;13.440;2022-12-18T14:49:31;-0.70;99.90
2054;DHT22;1032;52.542;13.440;2022-12-18T14:52:03;-1.40;99.90
2054;DHT22;1032;52.542;13.440;2022-12-18T14:54:34;-0.80;99.90
2054;DHT22;1032;52.542;13.440;2022-12-18T14:57:03;-0.70;99.90
2054;DHT22;1032;52.542;13.440;2022-12-18T14:59:30;-0.70;99.90
2054;DHT22;1032;52.542;13.440;2022-12-18T15:02:01;-0.90;99.90
2054;DHT22;1032;52.542;13.440;2022-12-18T15:04:32;-1.00;99.90
2054;DHT22;1032;52.542;13.440;2022-12-18T15:07:06;-1.70;99.90
2054;DHT22;1032;52.542;13.440;2022-12-18T15:09:35;-1.20;99.90
2054;DHT22;1032;52.542;13.440;2022-12-18T15:12:03;-0.50;99.90
2054;DHT22;1032;52.542;13.440;2022-12-18T15:14:37;-0.90;99.90
2054;DHT22;1032;52.542;13.440;2022-12-18T15:17:12;-1.00;99.90
2054;DHT22;1032;52.542;13.440;2022-12-18T15:19:41;-1.80;99.90
2054;DHT22;1032;52.542;13.440;2022-12-18T15:22:20;-1.00;99.90
2054;DHT22;1032;52.542;13.440;2022-12-18T15:24:49;-1.00;99.90
2054;DHT22;1032;52.542;13.440;2022-12-18T15:27:28;-1.00;99.90
2054;DHT22;1032;52.542;13.440;2022-12-18T15:30:21;-1.40;99.90
2054;DHT22;1032;52.542;13.440;2022-12-18T15:32:48;-1.00;99.90
2054;DHT22;1032;52.542;13.440;2022-12-18T15:35:19;-0.90;99.90
2054;DHT22;1032;52.542;13.440;2022-12-18T15:37:45;-1.30;99.90
2054;DHT22;1032;52.542;13.440;2022-12-18T15:40:15;-1.10;99.90
2054;DHT22;1032;52.542;13.440;2022-12-18T15:42:42;-1.10;99.90
2054;DHT22;1032;52.542;13.440;2022-12-18T15:45:26;-1.30;99.90
2054;DHT22;1032;52.542;13.440;2022-12-18T15:47:53;-0.50;99.90
2054;DHT22;1032;52.542;13.440;2022-12-18T15:50:20;-1.20;99.90
2054;DHT22;1032;52.542;13.440;2022-12-18T15:52:49;-1.40;99.90
2054;DHT22;1032;52.542;13.440;2022-12-18T15:55:21;-1.20;99.90
2054;DHT22;1032;52.542;13.440;2022-12-18T15:58:06;-1.30;99.90
2054;DHT22;1032;52.542;13.440;2022-12-18T16:00:36;-0.90;99.90
2054;DHT22;1032;52.542;13.440;2022-12-18T16:03:04;-1.00;99.90
2054;DHT22;1032;52.542;13.440;2022-12-18T16:05:32;-1.10;99.90
2054;DHT22;1032;52.542;13.440;2022-12-18T16:07:58;-1.10;99.90
2054;DHT22;1032;52.542;13.440;2022-12-18T16:10:27;-1.30;99.90
2054;DHT22;1032;52.542;13.440;2022-12-18T16:12:53;-1.40;99.90